Time;durP1;ratioP1;P1;durP2;ratioP2;P2;SDS_P1;SDS_P2;PMS_P1;PMS_P2;Temp;Humidity;BMP_temperature;BMP_pressure;BME280_temperature;BME280_humidity;BME280_pressure;Samples;Min_cycle;Max_cycle;Signal;HPM_P1;HPM_P2
2021/06/02 00:00:25;;;;;;;4.97;4.53;;;;;14.50;100890.00;;;;10481718;28;20200;-77
2021/06/02 00:05:27;;;;;;;7.00;4.93;;;;;14.40;100879.00;;;;10516775;28;20205;-77
2021/06/02 00:10:29;;;;;;;5.40;4.30;;;;;14.30;100884.00;;;;10519723;28;20270;-77
2021/06/02 00:15:31;;;;;;;4.83;4.43;;;;;14.20;100878.00;;;;10525498;28;20189;-77
2021/06/02 00:20:33;;;;;;;8.00;4.07;;;;;14.10;100872.00;;;;10475840;28;20616;-77
2021/06/02 00:25:36;;;;;;;5.20;4.70;;;;;14.00;100867.00;;;;10500932;28;20189;-77
2021/06/02 00:30:39;;;;;;;5.57;4.70;;;;;13.90;100878.00;;;;10492446;28;20275;-77
2021/06/02 00:35:42;;;;;;;7.20;4.10;;;;;13.90;100885.00;;;;10509693;28;20224;-77
2021/06/02 00:40:49;;;;;;;9.43;5.03;;;;;13.80;100881.00;;;;10503122;28;20255;-77
2021/06/02 00:45:50;;;;;;;6.50;4.60;;;;;13.70;100879.00;;;;10523420;28;20307;-77
2021/06/02 00:50:52;;;;;;;6.73;5.13;;;;;13.60;100884.00;;;;10509807;28;20213;-77
2021/06/02 00:56:02;;;;;;;8.07;5.10;;;;;13.40;100880.00;;;;10520016;28;20197;-77
2021/06/02 01:01:06;;;;;;;5.50;5.00;;;;;13.30;100876.00;;;;10511229;28;20199;-77
2021/06/02 01:06:08;;;;;;;6.30;5.00;;;;;13.10;100872.00;;;;10515829;28;20243;-76
2021/06/02 01:11:11;;;;;;;6.07;5.47;;;;;13.00;100859.00;;;;10501830;28;20255;-76
2021/06/02 01:16:30;;;;;;;10.63;5.97;;;;;12.90;100869.00;;;;10504252;28;20321;-76
2021/06/02 01:21:32;;;;;;;5.93;5.40;;;;;12.80;100873.00;;;;10477371;28;20293;-76
2021/06/02 01:26:35;;;;;;;5.97;5.37;;;;;12.80;100863.00;;;;10477614;28;20597;-76
2021/06/02 01:31:51;;;;;;;6.20;5.60;;;;;12.70;100868.00;;;;10492100;28;20213;-76
2021/06/02 01:37:05;;;;;;;9.83;5.60;;;;;12.60;100867.00;;;;10488117;28;20540;-76
2021/06/02 01:42:32;;;;;;;6.67;5.90;;;;;12.50;100873.00;;;;10513430;28;20255;-76
2021/06/02 01:47:46;;;;;;;7.80;5.67;;;;;12.40;100868.00;;;;10491139;28;20192;-76
2021/06/02 01:53:06;;;;;;;7.10;6.40;;;;;12.30;100875.00;;;;10476064;28;20234;-76
2021/06/02 01:58:23;;;;;;;6.63;6.00;;;;;12.20;100873.00;;;;10478331;28;20593;-76
2021/06/02 02:04:14;;;;;;;7.80;6.27;;;;;12.10;100872.00;;;;10486558;28;20201;-76
2021/06/02 02:09:35;;;;;;;8.37;6.47;;;;;12.00;100869.00;;;;10454589;28;20193;-76
2021/06/02 02:15:03;;;;;;;7.63;6.37;;;;;11.90;100862.00;;;;10480866;28;20218;-76
2021/06/02 02:20:18;;;;;;;6.13;5.63;;;;;11.80;100867.00;;;;10479170;28;20224;-76
2021/06/02 02:25:43;;;;;;;7.70;6.57;;;;;11.70;100873.00;;;;10503465;28;20220;-76
2021/06/02 02:31:03;;;;;;;7.70;6.90;;;;;11.60;100870.00;;;;10511327;28;20189;-76
2021/06/02 02:36:15;;;;;;;7.40;6.60;;;;;11.50;100877.00;;;;10500488;28;20262;-76
2021/06/02 02:41:40;;;;;;;7.97;6.90;;;;;11.40;100883.00;;;;10490920;28;20239;-76
2021/06/02 02:46:54;;;;;;;12.10;9.00;;;;;11.40;100883.00;;;;10472672;28;20193;-76
2021/06/02 02:52:12;;;;;;;8.73;7.00;;;;;11.40;100884.00;;;;10488701;28;20652;-76
2021/06/02 02:57:24;;;;;;;9.03;7.77;;;;;11.30;100887.00;;;;10472455;28;20720;-76
2021/06/02 03:02:43;;;;;;;11.30;7.50;;;;;11.30;100877.00;;;;10516387;28;20209;-76
2021/06/02 03:07:55;;;;;;;10.40;7.97;;;;;11.30;100876.00;;;;10495389;28;20671;-76
2021/06/02 03:13:01;;;;;;;9.90;8.03;;;;;11.20;100885.00;;;;10482889;28;20235;-76
2021/06/02 03:18:21;;;;;;;12.00;8.33;;;;;11.10;100864.00;;;;10518767;28;20200;-76
2021/06/02 03:23:44;;;;;;;9.87;8.80;;;;;11.00;100875.00;;;;10528266;28;20259;-76
2021/06/02 03:29:17;;;;;;;10.50;8.67;;;;;10.90;100874.00;;;;10500274;28;20204;-76
2021/06/02 03:34:25;;;;;;;10.20;8.63;;;;;10.90;100868.00;;;;10482932;28;20252;-76
2021/06/02 03:39:45;;;;;;;10.67;8.93;;;;;10.80;100862.00;;;;10456127;28;20282;-75
2021/06/02 03:45:05;;;;;;;12.07;7.80;;;;;10.80;100873.00;;;;10487396;28;20185;-76
2021/06/02 03:50:15;;;;;;;10.17;9.17;;;;;10.80;100877.00;;;;10496420;28;20254;-76
2021/06/02 03:55:51;;;;;;;10.10;8.90;;;;;10.80;100868.00;;;;10510231;28;20261;-76
2021/06/02 04:01:05;;;;;;;10.00;8.63;;;;;10.80;100867.00;;;;10500667;28;20219;-76
2021/06/02 04:06:20;;;;;;;9.73;8.73;;;;;11.10;100872.00;;;;10526023;28;20590;-76
2021/06/02 04:11:34;;;;;;;12.80;8.73;;;;;11.30;100874.00;;;;10509735;28;20207;-76
2021/06/02 04:16:39;;;;;;;9.70;8.43;;;;;11.70;100873.00;;;;10525517;28;20199;-76
2021/06/02 04:21:44;;;;;;;10.63;8.53;;;;;11.90;100871.00;;;;10479805;28;20221;-74
2021/06/02 04:26:46;;;;;;;11.20;7.90;;;;;12.10;100867.00;;;;10496167;28;20347;-76
2021/06/02 04:32:06;;;;;;;9.63;8.50;;;;;12.20;100871.00;;;;10504966;28;20220;-76
2021/06/02 04:37:09;;;;;;;9.80;7.20;;;;;12.30;100864.00;;;;10504242;28;20231;-76
2021/06/02 04:42:11;;;;;;;11.20;8.80;;;;;12.40;100871.00;;;;10475984;28;20204;-76
2021/06/02 04:47:13;;;;;;;11.10;9.17;;;;;12.60;100875.00;;;;10486948;28;20201;-77
2021/06/02 04:52:59;;;;;;;10.93;8.47;;;;;13.00;100884.00;;;;10474539;28;20675;-77
2021/06/02 04:58:23;;;;;;;9.27;8.03;;;;;13.40;100883.00;;;;10476843;28;20258;-77
2021/06/02 05:03:50;;;;;;;9.63;8.63;;;;;13.80;100881.00;;;;10511266;28;20266;-77
2021/06/02 05:09:04;;;;;;;10.70;8.80;;;;;14.30;100887.00;;;;10470519;28;20240;-75
2021/06/02 05:14:44;;;;;;;10.23;8.33;;;;;14.70;100884.00;;;;10527144;28;20196;-75
2021/06/02 05:20:22;;;;;;;10.50;7.93;;;;;15.20;100877.00;;;;10518071;28;20209;-75
2021/06/02 05:25:36;;;;;;;9.50;8.37;;;;;15.80;100889.00;;;;10507789;28;20189;-76
2021/06/02 05:31:19;;;;;;;13.10;8.20;;;;;16.40;100885.00;;;;10485159;28;20556;-75
2021/06/02 05:37:08;;;;;;;9.13;7.90;;;;;17.20;100880.00;;;;10517146;28;20262;-76
2021/06/02 05:42:22;;;;;;;8.47;6.63;;;;;17.90;100881.00;;;;10465877;28;20302;-76
2021/06/02 05:47:38;;;;;;;9.60;6.77;;;;;18.50;100890.00;;;;10465956;28;20242;-76
2021/06/02 05:52:58;;;;;;;8.60;5.97;;;;;19.10;100902.00;;;;10476550;28;20733;-76
2021/06/02 05:58:37;;;;;;;7.72;6.03;;;;;19.70;100893.00;;;;10504716;28;20192;-77
2021/06/02 06:04:08;;;;;;;12.15;6.00;;;;;20.20;100894.00;;;;10487999;28;20205;-76
2021/06/02 06:09:47;;;;;;;6.97;6.35;;;;;20.60;100883.00;;;;10496271;28;20246;-76
2021/06/02 06:15:40;;;;;;;8.82;5.85;;;;;21.00;100882.00;;;;10520724;28;20195;-77
2021/06/02 06:21:03;;;;;;;11.07;6.55;;;;;21.30;100872.00;;;;10517407;28;20266;-77
2021/06/02 06:26:16;;;;;;;7.88;6.03;;;;;21.70;100877.00;;;;10511191;28;20192;-77
2021/06/02 06:31:22;;;;;;;8.98;5.65;;;;;22.00;100882.00;;;;10521164;28;20235;-76
2021/06/02 06:36:25;;;;;;;8.63;5.63;;;;;22.40;100878.00;;;;10490016;28;20291;-77
2021/06/02 06:41:30;;;;;;;8.73;6.10;;;;;23.00;100885.00;;;;10509650;28;20208;-77
2021/06/02 06:46:33;;;;;;;10.07;5.82;;;;;23.40;100877.00;;;;10510672;28;20226;-77
2021/06/02 06:51:36;;;;;;;8.88;5.00;;;;;23.70;100877.00;;;;10501949;28;20186;-77
2021/06/02 06:56:40;;;;;;;8.65;4.85;;;;;24.00;100865.00;;;;10501704;28;20235;-77
2021/06/02 07:01:43;;;;;;;9.75;5.07;;;;;24.50;100862.00;;;;10500880;28;20210;-77
2021/06/02 07:06:46;;;;;;;7.70;4.97;;;;;24.80;100876.00;;;;10510958;28;20193;-76
2021/06/02 07:11:49;;;;;;;7.28;5.10;;;;;25.20;100862.00;;;;10499408;28;20193;-76
2021/06/02 07:16:52;;;;;;;5.55;4.82;;;;;25.50;100863.00;;;;10452512;28;20194;-77
2021/06/02 07:21:56;;;;;;;7.45;4.95;;;;;25.70;100862.00;;;;10486538;28;20202;-77
2021/06/02 07:27:00;;;;;;;6.38;4.30;;;;;25.90;100866.00;;;;10504098;28;20273;-77
2021/06/02 07:32:03;;;;;;;7.35;4.30;;;;;26.40;100873.00;;;;10504189;28;20225;-78
2021/06/02 07:37:05;;;;;;;8.00;4.13;;;;;26.60;100874.00;;;;10499347;28;20197;-78
2021/06/02 07:42:07;;;;;;;7.15;3.95;;;;;27.00;100871.00;;;;10509702;28;20627;-78
2021/06/02 07:47:09;;;;;;;6.18;3.85;;;;;27.30;100864.00;;;;10526530;28;20952;-77
2021/06/02 07:52:28;;;;;;;8.70;3.92;;;;;27.40;100870.00;;;;10499129;28;20212;-77
2021/06/02 07:57:31;;;;;;;7.00;4.15;;;;;27.80;100870.00;;;;10497583;28;20219;-78
2021/06/02 08:02:33;;;;;;;7.65;4.07;;;;;27.80;100865.00;;;;10495595;28;20236;-78
2021/06/02 08:07:35;;;;;;;8.82;4.28;;;;;27.80;100862.00;;;;10506785;28;20209;-77
2021/06/02 08:12:37;;;;;;;9.60;3.72;;;;;28.40;100865.00;;;;10514932;28;20227;-77
2021/06/02 08:17:39;;;;;;;5.68;3.60;;;;;28.90;100862.00;;;;10541543;28;20674;-78
2021/06/02 08:22:42;;;;;;;8.02;3.75;;;;;29.00;100852.00;;;;10524012;28;20900;-77
2021/06/02 08:27:45;;;;;;;8.82;3.20;;;;;29.10;100853.00;;;;10505828;28;20548;-78
2021/06/02 08:32:48;;;;;;;6.75;3.70;;;;;29.30;100850.00;;;;10511991;28;20220;-77
2021/06/02 08:37:50;;;;;;;3.95;3.45;;;;;29.60;100848.00;;;;10508173;28;20238;-77
2021/06/02 08:42:53;;;;;;;6.43;3.15;;;;;29.70;100858.00;;;;10499216;28;20291;-78
2021/06/02 08:47:59;;;;;;;5.65;3.08;;;;;30.00;100856.00;;;;10546268;28;20197;-78
2021/06/02 08:53:03;;;;;;;4.35;3.38;;;;;30.30;100851.00;;;;10504882;28;20182;-78
2021/06/02 08:58:05;;;;;;;9.45;2.92;;;;;30.90;100850.00;;;;10502939;28;20197;-78
2021/06/02 09:03:06;;;;;;;8.48;2.95;;;;;31.10;100852.00;;;;10482354;28;20196;-77
2021/06/02 09:08:13;;;;;;;4.18;2.70;;;;;31.30;100857.00;;;;10490713;28;20215;-77
2021/06/02 09:13:18;;;;;;;6.28;3.15;;;;;31.50;100850.00;;;;10517202;28;20288;-78
2021/06/02 09:18:21;;;;;;;8.93;2.53;;;;;31.80;100853.00;;;;10494244;28;20220;-77
2021/06/02 09:23:38;;;;;;;6.32;2.75;;;;;32.00;100859.00;;;;10502225;28;20674;-78
2021/06/02 09:29:03;;;;;;;3.55;2.42;;;;;32.30;100853.00;;;;10495296;28;20222;-79
2021/06/02 09:34:19;;;;;;;3.72;2.30;;;;;32.30;100856.00;;;;10504578;28;20213;-77
2021/06/02 09:39:23;;;;;;;3.13;2.40;;;;;32.40;100860.00;;;;10506431;28;20207;-78
2021/06/02 09:44:29;;;;;;;3.83;2.55;;;;;32.40;100849.00;;;;10518878;28;20238;-78
2021/06/02 09:49:54;;;;;;;3.40;2.58;;;;;32.10;100844.00;;;;10523089;28;20267;-78
2021/06/02 09:55:10;;;;;;;4.57;2.40;;;;;32.40;100832.00;;;;10495114;28;20188;-78
2021/06/02 10:00:14;;;;;;;3.70;2.13;;;;;32.70;100834.00;;;;10491763;28;20193;-78
2021/06/02 10:05:16;;;;;;;4.90;2.05;;;;;32.70;100830.00;;;;10486257;28;20198;-78
2021/06/02 10:10:20;;;;;;;3.00;2.20;;;;;33.00;100828.00;;;;10505899;28;20223;-78
2021/06/02 10:15:27;;;;;;;5.53;2.10;;;;;32.60;100828.00;;;;10486248;28;20193;-78
2021/06/02 10:20:29;;;;;;;3.00;2.05;;;;;32.70;100819.00;;;;10493928;28;20966;-78
2021/06/02 10:25:31;;;;;;;3.13;2.00;;;;;33.10;100829.00;;;;10500746;28;20197;-78
2021/06/02 10:30:37;;;;;;;5.10;2.17;;;;;33.30;100821.00;;;;10478158;28;20710;-78
2021/06/02 10:35:40;;;;;;;3.10;2.20;;;;;33.20;100818.00;;;;10504763;28;20220;-76
2021/06/02 10:40:43;;;;;;;2.70;1.98;;;;;33.30;100819.00;;;;10501836;28;20224;-79
2021/06/02 10:45:57;;;;;;;6.32;2.45;;;;;33.10;100815.00;;;;10509993;28;20706;-77
2021/06/02 10:50:59;;;;;;;3.42;2.17;;;;;33.60;100818.00;;;;10461252;28;20254;-77
2021/06/02 10:56:02;;;;;;;8.40;2.72;;;;;33.30;100816.00;;;;10491949;28;20236;-78
2021/06/02 11:01:04;;;;;;;4.22;2.20;;;;;33.60;100822.00;;;;10523747;28;20188;-77
2021/06/02 11:06:05;;;;;;;2.35;2.10;;;;;34.30;100814.00;;;;10500714;28;20306;-78
2021/06/02 11:11:30;;;;;;;2.95;2.00;;;;;34.40;100812.00;;;;10518250;28;20695;-76
2021/06/02 11:16:40;;;;;;;1.83;1.60;;;;;34.70;100814.00;;;;10513697;28;20275;-78
2021/06/02 11:21:57;;;;;;;3.53;1.95;;;;;34.90;100821.00;;;;10523924;28;20227;-78
2021/06/02 11:27:14;;;;;;;3.05;2.00;;;;;34.60;100814.00;;;;10494075;28;20226;-78
2021/06/02 11:32:20;;;;;;;2.90;1.50;;;;;34.60;100814.00;;;;10490043;28;20575;-77
2021/06/02 11:37:25;;;;;;;4.07;2.10;;;;;34.80;100816.00;;;;10508085;28;20691;-79
2021/06/02 11:42:37;;;;;;;3.00;1.85;;;;;34.50;100815.00;;;;10506571;28;20189;-77
2021/06/02 11:47:50;;;;;;;2.55;2.15;;;;;34.80;100817.00;;;;10513346;28;20201;-77
2021/06/02 11:53:01;;;;;;;6.53;2.53;;;;;34.40;100808.00;;;;10500676;28;20208;-78
2021/06/02 11:58:03;;;;;;;2.40;1.90;;;;;34.50;100808.00;;;;10500996;28;20189;-78
2021/06/02 12:03:11;;;;;;;3.63;2.00;;;;;34.20;100812.00;;;;10530743;28;20674;-78
2021/06/02 12:08:14;;;;;;;2.10;1.90;;;;;34.10;100802.00;;;;10496013;28;20196;-78
2021/06/02 12:13:20;;;;;;;3.47;1.65;;;;;34.10;100810.00;;;;10510084;28;20614;-78
2021/06/02 12:18:33;;;;;;;4.05;2.00;;;;;34.10;100805.00;;;;10499770;28;20236;-77
2021/06/02 12:23:44;;;;;;;2.03;1.83;;;;;34.00;100815.00;;;;10524971;28;20196;-78
2021/06/02 12:28:47;;;;;;;2.70;2.08;;;;;34.30;100810.00;;;;10528792;28;20196;-79
2021/06/02 12:34:02;;;;;;;4.20;2.30;;;;;34.80;100813.00;;;;10515272;28;20306;-78
2021/06/02 12:39:06;;;;;;;4.30;2.17;;;;;34.50;100814.00;;;;10483447;28;20224;-77
2021/06/02 12:44:10;;;;;;;2.60;1.98;;;;;34.60;100818.00;;;;10523224;28;20709;-79
2021/06/02 12:49:12;;;;;;;3.92;2.03;;;;;34.80;100810.00;;;;10522557;28;20280;-77
2021/06/02 12:54:15;;;;;;;4.30;2.00;;;;;35.00;100812.00;;;;10486863;28;20218;-78
2021/06/02 12:59:17;;;;;;;3.22;1.85;;;;;35.20;100814.00;;;;10505586;28;20749;-79
2021/06/02 13:04:19;;;;;;;2.50;1.90;;;;;35.70;100811.00;;;;10491910;28;21173;-78
2021/06/02 13:09:23;;;;;;;5.30;2.10;;;;;36.20;100813.00;;;;10521596;28;20192;-79
2021/06/02 13:14:34;;;;;;;3.45;1.90;;;;;37.00;100814.00;;;;10474384;28;20216;-79
2021/06/02 13:19:45;;;;;;;6.80;2.13;;;;;37.50;100815.00;;;;10503576;28;20190;-79
2021/06/02 13:24:47;;;;;;;2.55;1.90;;;;;37.10;100808.00;;;;10521623;28;20238;-78
2021/06/02 13:30:10;;;;;;;2.08;1.88;;;;;38.40;100804.00;;;;10501705;28;20259;-79
2021/06/02 13:35:19;;;;;;;2.17;1.85;;;;;39.50;100800.00;;;;10461113;28;20746;-79
2021/06/02 13:40:29;;;;;;;3.25;1.80;;;;;39.90;100810.00;;;;10465998;28;20942;-79
2021/06/02 13:45:43;;;;;;;2.15;1.95;;;;;40.30;100806.00;;;;10470346;28;20590;-79
2021/06/02 13:50:45;;;;;;;2.65;1.85;;;;;40.70;100796.00;;;;10506946;28;20246;-79
2021/06/02 13:55:56;;;;;;;5.18;1.75;;;;;41.30;100789.00;;;;10524147;28;20193;-79
2021/06/02 14:00:57;;;;;;;5.00;2.00;;;;;41.80;100787.00;;;;10528916;28;20185;-79
2021/06/02 14:05:59;;;;;;;2.85;2.10;;;;;42.50;100778.00;;;;10511525;28;20189;-80
2021/06/02 14:11:01;;;;;;;4.28;2.20;;;;;42.70;100774.00;;;;10496744;28;20237;-77
2021/06/02 14:16:04;;;;;;;2.88;2.00;;;;;43.30;100773.00;;;;10515575;28;20189;-78
2021/06/02 14:21:05;;;;;;;4.25;1.70;;;;;43.50;100765.00;;;;10498818;28;20283;-78
2021/06/02 14:26:07;;;;;;;3.65;2.10;;;;;43.30;100770.00;;;;10474742;28;20250;-78
2021/06/02 14:31:10;;;;;;;2.10;1.77;;;;;44.10;100761.00;;;;10513103;28;20208;-78
2021/06/02 14:36:12;;;;;;;2.42;1.90;;;;;44.00;100750.00;;;;10513418;28;20228;-79
2021/06/02 14:41:14;;;;;;;3.72;1.75;;;;;43.50;100754.00;;;;10484044;28;20258;-78
2021/06/02 14:46:16;;;;;;;1.95;1.70;;;;;43.80;100748.00;;;;10497619;28;20209;-78
2021/06/02 14:51:18;;;;;;;3.78;1.60;;;;;43.30;100748.00;;;;10486977;28;20221;-78
2021/06/02 14:56:20;;;;;;;2.65;1.73;;;;;44.40;100748.00;;;;10509685;28;20560;-78
2021/06/02 15:01:22;;;;;;;4.50;2.17;;;;;44.90;100746.00;;;;10534238;28;20212;-78
2021/06/02 15:06:25;;;;;;;3.58;1.95;;;;;43.90;100739.00;;;;10493766;28;20216;-78
2021/06/02 15:11:26;;;;;;;4.03;1.90;;;;;44.70;100742.00;;;;10526902;28;20649;-78
2021/06/02 15:16:28;;;;;;;1.90;1.77;;;;;45.10;100743.00;;;;10498552;28;20188;-79
2021/06/02 15:21:30;;;;;;;2.70;2.13;;;;;40.30;100761.00;;;;10527342;28;20238;-78
2021/06/02 15:26:34;;;;;;;2.22;1.88;;;;;38.10;100726.00;;;;10492432;28;20597;-79
2021/06/02 15:31:36;;;;;;;2.25;2.00;;;;;42.20;100737.00;;;;10511374;28;20224;-79
2021/06/02 15:36:40;;;;;;;3.25;2.17;;;;;37.40;100747.00;;;;10499648;28;20259;-79
2021/06/02 15:41:43;;;;;;;2.75;2.08;;;;;41.60;100730.00;;;;10504900;28;20206;-78
2021/06/02 15:46:45;;;;;;;2.38;2.00;;;;;39.50;100750.00;;;;10533639;28;20199;-78
2021/06/02 15:51:55;;;;;;;4.95;2.30;;;;;35.20;100750.00;;;;10516122;28;20220;-79
2021/06/02 15:57:03;;;;;;;4.13;2.15;;;;;33.60;100747.00;;;;10550880;28;20220;-79
2021/06/02 16:02:04;;;;;;;2.70;2.00;;;;;34.90;100734.00;;;;10515475;28;20547;-79
2021/06/02 16:07:07;;;;;;;4.22;2.00;;;;;34.40;100745.00;;;;10515603;28;20590;-79
2021/06/02 16:12:09;;;;;;;2.30;2.10;;;;;33.60;100745.00;;;;10515435;28;20209;-79
2021/06/02 16:17:12;;;;;;;7.85;2.25;;;;;33.30;100746.00;;;;10515816;28;20193;-79
2021/06/02 16:22:14;;;;;;;2.70;2.22;;;;;33.00;100732.00;;;;10499523;28;20197;-78
2021/06/02 16:27:16;;;;;;;2.35;2.15;;;;;33.10;100730.00;;;;10499503;28;20256;-78
2021/06/02 16:32:18;;;;;;;6.28;2.20;;;;;32.60;100742.00;;;;10515602;28;20221;-79
2021/06/02 16:37:21;;;;;;;2.65;1.85;;;;;32.00;100756.00;;;;10531406;28;20215;-77
2021/06/02 16:42:22;;;;;;;4.85;2.20;;;;;31.80;100753.00;;;;10514257;28;20215;-77
2021/06/02 16:47:25;;;;;;;2.42;2.17;;;;;31.30;100757.00;;;;10531613;28;20189;-77
2021/06/02 16:52:31;;;;;;;4.15;2.30;;;;;31.00;100764.00;;;;10549878;28;20209;-78
2021/06/02 16:57:38;;;;;;;2.67;2.47;;;;;30.50;100756.00;;;;10513345;28;20288;-77
2021/06/02 17:02:41;;;;;;;2.97;2.10;;;;;29.90;100759.00;;;;10488530;28;20241;-77
2021/06/02 17:07:44;;;;;;;8.02;2.75;;;;;29.40;100765.00;;;;10488373;28;20238;-77
2021/06/02 17:12:45;;;;;;;5.68;2.15;;;;;28.90;100762.00;;;;10469973;28;20213;-77
2021/06/02 17:17:53;;;;;;;3.78;2.72;;;;;28.60;100756.00;;;;10470793;28;20211;-77
2021/06/02 17:23:02;;;;;;;3.30;2.55;;;;;28.50;100762.00;;;;10472015;28;20186;-77
2021/06/02 17:28:07;;;;;;;2.63;2.28;;;;;28.20;100762.00;;;;10468971;28;20644;-77
2021/06/02 17:33:10;;;;;;;4.25;2.90;;;;;28.10;100768.00;;;;10452437;28;20240;-77
2021/06/02 17:38:12;;;;;;;4.32;2.58;;;;;28.10;100767.00;;;;10526822;28;20193;-77
2021/06/02 17:43:14;;;;;;;3.40;2.15;;;;;28.00;100767.00;;;;10527034;28;20211;-77
2021/06/02 17:48:22;;;;;;;3.78;2.63;;;;;28.10;100780.00;;;;10545422;28;20223;-77
2021/06/02 17:53:25;;;;;;;3.70;2.33;;;;;28.00;100772.00;;;;10528136;28;20204;-77
2021/06/02 17:58:28;;;;;;;3.88;2.20;;;;;28.10;100778.00;;;;10527259;28;20628;-77
2021/06/02 18:03:30;;;;;;;3.83;2.30;;;;;28.20;100780.00;;;;10510269;28;20246;-77
2021/06/02 18:08:32;;;;;;;3.78;2.03;;;;;28.40;100783.00;;;;10498179;28;20243;-77
2021/06/02 18:13:36;;;;;;;5.70;2.53;;;;;28.50;100779.00;;;;10450707;28;20217;-77
2021/06/02 18:18:51;;;;;;;3.08;2.60;;;;;28.50;100794.00;;;;10466840;28;20193;-77
2021/06/02 18:23:56;;;;;;;2.58;2.38;;;;;28.40;100803.00;;;;10487522;28;20191;-77
2021/06/02 18:29:01;;;;;;;7.10;2.35;;;;;28.30;100815.00;;;;10543346;28;20185;-77
2021/06/02 18:34:03;;;;;;;5.60;3.25;;;;;28.10;100817.00;;;;10524609;28;20248;-78
2021/06/02 18:39:06;;;;;;;4.05;2.60;;;;;27.90;100827.00;;;;10490976;28;20200;-77
2021/06/02 18:44:09;;;;;;;6.15;2.85;;;;;27.50;100826.00;;;;10507943;28;20521;-77
2021/06/02 18:49:12;;;;;;;6.72;2.35;;;;;27.40;100824.00;;;;10491316;28;20227;-77
2021/06/02 18:54:14;;;;;;;3.75;2.72;;;;;27.30;100831.00;;;;10508070;28;20220;-77
2021/06/02 18:59:20;;;;;;;3.00;2.70;;;;;27.10;100833.00;;;;10490465;28;20287;-76
2021/06/02 19:04:22;;;;;;;3.92;2.70;;;;;26.80;100843.00;;;;10507471;28;20217;-77
2021/06/02 19:09:24;;;;;;;5.68;2.72;;;;;26.30;100839.00;;;;10541188;28;20192;-77
2021/06/02 19:14:26;;;;;;;4.72;3.13;;;;;25.80;100845.00;;;;10522450;28;20243;-77
2021/06/02 19:19:28;;;;;;;7.03;3.20;;;;;25.40;100853.00;;;;10468455;28;20276;-77
2021/06/02 19:24:29;;;;;;;7.60;3.17;;;;;25.10;100874.00;;;;10498406;28;20209;-77
2021/06/02 19:29:34;;;;;;;7.70;3.20;;;;;25.00;100886.00;;;;10498872;28;20189;-77
2021/06/02 19:34:37;;;;;;;4.78;3.20;;;;;25.00;100892.00;;;;10474659;28;20248;-77
2021/06/02 19:39:39;;;;;;;6.18;2.70;;;;;24.70;100894.00;;;;10446391;28;20219;-77
2021/06/02 19:44:40;;;;;;;3.95;3.20;;;;;24.40;100904.00;;;;10479095;28;20276;-77
2021/06/02 19:49:42;;;;;;;8.05;3.42;;;;;24.10;100923.00;;;;10521277;28;20197;-77
2021/06/02 19:54:44;;;;;;;3.42;2.67;;;;;23.90;100939.00;;;;10515109;28;20218;-77
2021/06/02 19:59:46;;;;;;;3.80;2.97;;;;;23.70;100962.00;;;;10499260;28;20544;-77
2021/06/02 20:04:48;;;;;;;5.95;3.20;;;;;23.60;100975.00;;;;10457508;28;20297;-77
2021/06/02 20:09:50;;;;;;;6.43;2.67;;;;;23.60;100985.00;;;;10489954;28;20208;-77
2021/06/02 20:14:52;;;;;;;2.75;2.38;;;;;23.70;101004.00;;;;10474791;28;20217;-76
2021/06/02 20:19:54;;;;;;;22.33;4.22;;;;;23.60;101031.00;;;;10456579;28;20224;-77
2021/06/02 20:24:56;;;;;;;9.65;3.90;;;;;23.30;101080.00;;;;10490244;28;20288;-77
2021/06/02 20:30:07;;;;;;;8.60;4.78;;;;;22.40;101134.00;;;;10532253;28;20181;-77
2021/06/02 20:35:17;;;;;;;12.15;4.93;;;;;21.40;101133.00;;;;10532204;28;20250;-77
2021/06/02 20:40:19;;;;;;;14.55;5.93;;;;;20.40;101129.00;;;;10528999;28;20647;-77
2021/06/02 20:45:22;;;;;;;13.07;4.18;;;;;19.70;101130.00;;;;10527243;28;20275;-76
2021/06/02 20:50:25;;;;;;;5.93;4.25;;;;;19.30;101152.00;;;;10509369;28;20236;-77
2021/06/02 20:55:27;;;;;;;8.10;4.82;;;;;19.10;101178.00;;;;10492279;28;20228;-77
2021/06/02 21:00:29;;;;;;;8.20;5.38;;;;;19.00;101185.00;;;;10485023;28;20194;-76
2021/06/02 21:05:31;;;;;;;8.77;5.40;;;;;18.90;101168.00;;;;10467534;28;20243;-76
2021/06/02 21:10:33;;;;;;;6.72;5.57;;;;;18.80;101165.00;;;;10501971;28;20280;-76
2021/06/02 21:15:35;;;;;;;8.93;5.78;;;;;18.80;101157.00;;;;10483510;28;20292;-76
2021/06/02 21:20:38;;;;;;;6.63;5.90;;;;;18.80;101162.00;;;;10503037;28;20192;-76
2021/06/02 21:25:39;;;;;;;8.80;6.07;;;;;18.80;101141.00;;;;10524532;28;20284;-76
2021/06/02 21:30:42;;;;;;;14.48;7.05;;;;;18.80;101146.00;;;;10491385;28;20197;-77
2021/06/02 21:35:44;;;;;;;10.13;6.67;;;;;18.70;101140.00;;;;10523796;28;20225;-76
2021/06/02 21:40:46;;;;;;;7.83;7.10;;;;;18.80;101112.00;;;;10490779;28;20235;-77
2021/06/02 21:45:50;;;;;;;7.78;7.03;;;;;18.80;101130.00;;;;10509417;28;20200;-75
2021/06/02 21:50:53;;;;;;;8.00;7.03;;;;;18.70;101122.00;;;;10540860;28;20188;-76
2021/06/02 21:55:55;;;;;;;8.20;7.43;;;;;18.70;101119.00;;;;10523819;28;20561;-77
2021/06/02 22:00:56;;;;;;;8.63;7.73;;;;;18.50;101114.00;;;;10506190;28;20242;-77
2021/06/02 22:06:00;;;;;;;8.00;7.30;;;;;18.40;101102.00;;;;10523657;28;20227;-76
2021/06/02 22:11:09;;;;;;;12.87;8.50;;;;;18.40;101107.00;;;;10473558;28;20221;-76
2021/06/02 22:16:10;;;;;;;9.53;8.33;;;;;18.30;101111.00;;;;10522047;28;20201;-74
2021/06/02 22:21:13;;;;;;;11.17;8.53;;;;;18.30;101111.00;;;;10541032;28;20186;-74
2021/06/02 22:26:16;;;;;;;9.50;8.40;;;;;18.20;101108.00;;;;10522136;28;20250;-74
2021/06/02 22:31:18;;;;;;;11.77;9.30;;;;;18.20;101103.00;;;;10505733;28;20232;-76
2021/06/02 22:36:20;;;;;;;9.73;8.83;;;;;18.10;101102.00;;;;10521697;28;20223;-75
2021/06/02 22:41:22;;;;;;;12.63;10.17;;;;;18.00;101107.00;;;;10504941;28;20524;-75
2021/06/02 22:46:24;;;;;;;10.43;8.87;;;;;18.00;101115.00;;;;10490581;28;20181;-75
2021/06/02 22:51:26;;;;;;;10.03;8.87;;;;;18.00;101114.00;;;;10493101;28;20189;-76
2021/06/02 22:56:28;;;;;;;12.20;9.47;;;;;17.80;101113.00;;;;10521756;28;20624;-75
2021/06/02 23:01:32;;;;;;;13.60;9.47;;;;;17.70;101101.00;;;;10503477;28;20196;-75
2021/06/02 23:06:34;;;;;;;10.43;9.03;;;;;17.60;101100.00;;;;10504474;28;20640;-76
2021/06/02 23:11:35;;;;;;;11.30;9.13;;;;;17.50;101114.00;;;;10504472;28;20223;-75
2021/06/02 23:16:37;;;;;;;9.60;8.70;;;;;17.40;101119.00;;;;10487940;28;20208;-75
2021/06/02 23:21:39;;;;;;;9.33;8.43;;;;;17.40;101123.00;;;;10504349;28;20777;-75
2021/06/02 23:26:41;;;;;;;12.63;7.97;;;;;17.30;101135.00;;;;10494926;28;20231;-75
2021/06/02 23:31:43;;;;;;;8.10;7.40;;;;;17.20;101126.00;;;;10454151;28;20223;-75
2021/06/02 23:36:46;;;;;;;8.03;6.40;;;;;17.20;101141.00;;;;10487445;28;20214;-75
2021/06/02 23:41:47;;;;;;;8.27;6.20;;;;;17.10;101127.00;;;;10470475;28;20215;-75
2021/06/02 23:46:49;;;;;;;6.53;5.67;;;;;17.20;101132.00;;;;10505006;28;20193;-75
2021/06/02 23:51:51;;;;;;;8.70;5.83;;;;;17.20;101131.00;;;;10465342;28;20284;-75
2021/06/02 23:56:54;;;;;;;9.70;5.67;;;;;17.30;101139.00;;;;10512897;28;20212;-75
